createdAt,value
2018-09-14T00:01:50.017Z,102212.67
2018-09-14T00:04:19.373Z,102215.63
2018-09-14T00:06:48.718Z,102216.02
2018-09-14T00:09:18.054Z,102208.48
2018-09-14T00:11:47.397Z,102211.92
2018-09-14T00:14:16.754Z,102209.69
2018-09-14T00:16:46.154Z,102211.91
2018-09-14T00:19:15.502Z,102213.61
2018-09-14T00:21:44.861Z,102211.44
2018-09-14T00:24:14.205Z,102210.08
2018-09-14T00:26:43.592Z,102199.09
2018-09-14T00:29:12.927Z,102204.33
2018-09-14T00:31:42.277Z,102201.23
2018-09-14T00:34:11.619Z,102201.18
2018-09-14T00:36:40.959Z,102187.45
2018-09-14T00:39:11.237Z,102200.29
2018-09-14T00:41:40.553Z,102195.05
2018-09-14T00:44:09.937Z,102197.57
2018-09-14T00:46:40.723Z,102197.13
2018-09-14T00:49:10.054Z,102197.52
2018-09-14T00:51:39.386Z,102196.58
2018-09-14T00:54:08.820Z,102197.83
2018-09-14T00:56:38.136Z,102195.59
2018-09-14T00:59:07.489Z,102202.09
2018-09-14T01:01:36.845Z,102202.91
2018-09-14T01:04:06.197Z,102198.05
2018-09-14T01:06:35.585Z,102195.44
2018-09-14T01:09:13.384Z,102198.88
2018-09-14T01:11:42.709Z,102197.02
2018-09-14T01:14:12.069Z,102197.35
2018-09-14T01:16:41.538Z,102194.62
2018-09-14T01:19:11.042Z,102198.48
2018-09-14T01:21:40.481Z,102204.53
2018-09-14T01:24:09.864Z,102208.39
2018-09-14T01:26:39.238Z,102158.63
2018-09-14T01:29:08.581Z,102205.73
2018-09-14T01:31:37.922Z,102207.84
2018-09-14T01:34:07.326Z,102205.63
2018-09-14T01:36:36.665Z,102200.80
2018-09-14T01:39:10.901Z,102207.22
2018-09-14T01:41:40.614Z,102208.50
2018-09-14T01:44:10.342Z,102200.12
2018-09-14T01:46:39.754Z,102202.23
2018-09-14T01:49:09.086Z,102194.31
2018-09-14T01:51:38.463Z,102184.65
2018-09-14T01:54:13.836Z,102182.41
2018-09-14T01:56:43.615Z,102178.86
2018-09-14T01:59:13.041Z,102180.12
2018-09-14T02:01:42.445Z,102177.43
2018-09-14T02:04:11.964Z,102179.56
2018-09-14T02:06:41.526Z,102176.07
2018-09-14T02:09:11.738Z,102169.02
2018-09-14T02:11:41.672Z,102170.34
2018-09-14T02:14:11.045Z,102169.45
2018-09-14T02:16:40.479Z,102174.74
2018-09-14T02:19:10.156Z,102170.77
2018-09-14T02:21:39.577Z,102169.02
2018-09-14T02:24:09.013Z,102168.64
2018-09-14T02:26:38.409Z,102160.84
2018-09-14T02:29:07.797Z,102163.41
2018-09-14T02:31:37.182Z,102157.72
2018-09-14T02:34:06.696Z,102154.58
2018-09-14T02:36:36.182Z,102159.36
2018-09-14T02:39:08.207Z,102155.87
2018-09-14T02:41:37.634Z,102152.31
2018-09-14T02:44:07.175Z,102153.58
2018-09-14T02:46:36.765Z,102158.36
2018-09-14T02:49:06.906Z,102160.48
2018-09-14T02:51:36.269Z,102160.43
2018-09-14T02:54:05.953Z,102154.69
2018-09-14T02:56:35.373Z,102158.06
2018-09-14T02:59:06.140Z,102160.19
2018-09-14T03:01:35.712Z,102159.68
2018-09-14T03:04:06.417Z,102157.89
2018-09-14T03:06:35.847Z,102160.88
2018-09-14T03:09:09.005Z,102158.64
2018-09-14T03:11:38.631Z,102152.52
2018-09-14T03:14:08.150Z,102153.34
2018-09-14T03:16:37.616Z,102144.98
2018-09-14T03:19:07.222Z,102144.78
2018-09-14T03:21:36.654Z,102138.13
2018-09-14T03:24:06.177Z,102145.44
2018-09-14T03:26:35.602Z,102151.47
2018-09-14T03:29:06.364Z,102149.23
2018-09-14T03:31:35.835Z,102153.97
2018-09-14T03:34:06.690Z,102152.23
2018-09-14T03:36:36.157Z,102153.53
2018-09-14T03:39:09.094Z,102149.59
2018-09-14T03:41:38.442Z,102146.92
2018-09-14T03:44:07.892Z,102152.16
2018-09-14T03:46:37.220Z,102150.34
2018-09-14T03:49:06.573Z,102149.86
2018-09-14T03:51:35.939Z,102145.48
2018-09-14T03:54:06.262Z,102149.84
2018-09-14T03:56:35.637Z,102151.95
2018-09-14T03:59:06.314Z,102143.59
2018-09-14T04:01:35.655Z,102150.52
2018-09-14T04:04:05.009Z,102146.97
2018-09-14T04:06:34.530Z,102146.09
2018-09-14T04:09:03.962Z,102142.16
2018-09-14T04:11:33.277Z,102134.77
2018-09-14T04:14:02.722Z,102133.45
2018-09-14T04:16:32.051Z,102135.70
2018-09-14T04:19:03.092Z,102134.89
2018-09-14T04:21:33.672Z,102133.20
2018-09-14T04:24:03.301Z,102134.97
2018-09-14T04:26:32.660Z,102131.98
2018-09-14T04:29:02.008Z,102137.77
2018-09-14T04:31:31.355Z,102133.89
2018-09-14T04:34:00.704Z,102137.02
2018-09-14T04:36:30.066Z,102143.17
2018-09-14T04:38:59.392Z,102134.89
2018-09-14T04:41:28.730Z,102133.64
2018-09-14T04:43:58.094Z,102141.94
2018-09-14T04:46:27.456Z,102145.86
2018-09-14T04:48:56.821Z,102144.98
2018-09-14T04:51:26.312Z,102137.08
2018-09-14T04:53:55.565Z,102137.08
2018-09-14T04:56:24.914Z,102137.52
2018-09-14T04:58:54.271Z,102139.20
2018-09-14T05:01:23.670Z,102136.13
2018-09-14T05:03:53.054Z,102138.31
2018-09-14T05:06:22.406Z,102135.70
2018-09-14T05:08:51.769Z,102129.16
2018-09-14T05:11:21.119Z,102130.09
2018-09-14T05:13:50.510Z,102124.38
2018-09-14T05:16:19.843Z,102122.24
2018-09-14T05:18:49.213Z,102117.45
2018-09-14T05:21:18.589Z,102117.95
2018-09-14T05:23:47.962Z,102115.02
2018-09-14T05:26:17.262Z,102116.83
2018-09-14T05:28:48.582Z,102123.05
2018-09-14T05:31:17.935Z,102122.23
2018-09-14T05:33:49.997Z,102119.69
2018-09-14T05:36:19.335Z,102121.11
2018-09-14T05:38:48.706Z,102124.34
2018-09-14T05:41:18.085Z,102122.33
2018-09-14T05:43:47.530Z,102124.59
2018-09-14T05:46:16.887Z,102124.30
2018-09-14T05:48:46.415Z,102129.66
2018-09-14T05:51:15.769Z,102127.16
2018-09-14T05:53:45.128Z,102133.86
2018-09-14T05:56:14.514Z,102131.41
2018-09-14T05:58:43.864Z,102132.43
2018-09-14T06:01:13.278Z,102135.17
2018-09-14T06:03:42.641Z,102136.69
2018-09-14T06:06:11.997Z,102135.16
2018-09-14T06:08:41.301Z,102135.82
2018-09-14T06:11:41.395Z,102130.82
2018-09-14T06:14:10.737Z,102127.59
2018-09-14T06:16:40.429Z,102132.25
2018-09-14T06:19:09.822Z,102125.50
2018-09-14T06:21:39.125Z,102127.09
2018-09-14T06:24:08.486Z,102122.95
2018-09-14T06:26:37.818Z,102124.05
2018-09-14T06:29:07.212Z,102129.58
2018-09-14T06:31:36.526Z,102123.61
2018-09-14T06:34:06.134Z,102126.39
2018-09-14T06:36:35.464Z,102123.09
2018-09-14T06:39:07.486Z,102123.71
2018-09-14T06:41:36.796Z,102118.20
2018-09-14T06:44:06.410Z,102118.81
2018-09-14T06:46:35.750Z,102107.59
2018-09-14T06:49:06.726Z,102106.84
2018-09-14T06:51:37.537Z,102112.23
2018-09-14T06:54:07.132Z,102112.36
2018-09-14T06:56:36.407Z,102114.20
2018-09-14T06:59:06.494Z,102109.91
2018-09-14T07:01:35.805Z,102109.15
2018-09-14T07:04:06.385Z,102113.16
2018-09-14T07:06:35.763Z,102116.34
2018-09-14T07:09:08.397Z,102118.20
2018-09-14T07:11:37.802Z,102115.27
2018-09-14T07:14:07.169Z,102111.88
2018-09-14T07:16:36.497Z,102125.22
2018-09-14T07:19:06.245Z,102128.45
2018-09-14T07:21:35.554Z,102126.83
2018-09-14T07:24:04.861Z,102125.22
2018-09-14T07:26:34.293Z,102123.15
2018-09-14T07:29:03.690Z,102124.58
2018-09-14T07:31:33.018Z,102120.80
2018-09-14T07:34:02.329Z,102113.81
2018-09-14T07:36:31.752Z,102124.91
2018-09-14T07:39:01.016Z,102115.33
2018-09-14T07:41:30.544Z,102121.14
2018-09-14T07:43:59.846Z,102120.73
2018-09-14T07:46:29.195Z,102124.75
2018-09-14T07:48:58.562Z,102127.45
2018-09-14T07:51:27.975Z,102130.56
2018-09-14T07:53:57.404Z,102130.14
2018-09-14T07:56:27.298Z,102128.80
2018-09-14T07:58:58.243Z,102135.88
2018-09-14T08:01:28.073Z,102138.05
2018-09-14T08:03:57.462Z,102139.36
2018-09-14T08:06:26.765Z,102136.17
2018-09-14T08:08:56.087Z,102134.28
2018-09-14T08:11:25.445Z,102142.48
2018-09-14T08:13:55.472Z,102143.20
2018-09-14T08:16:24.817Z,102140.39
2018-09-14T08:18:54.143Z,102141.55
2018-09-14T08:21:23.556Z,102143.65
2018-09-14T08:23:53.022Z,102144.87
2018-09-14T08:26:22.358Z,102140.84
2018-09-14T08:28:51.926Z,102147.02
2018-09-14T08:31:21.360Z,102140.44
2018-09-14T08:33:50.702Z,102158.61
2018-09-14T08:36:20.370Z,102154.64
2018-09-14T08:38:50.727Z,102158.66
2018-09-14T08:41:20.286Z,102152.44
2018-09-14T08:43:49.890Z,102160.86
2018-09-14T08:46:19.230Z,102162.19
2018-09-14T08:48:48.590Z,102160.86
2018-09-14T08:51:17.984Z,102163.88
2018-09-14T08:53:47.409Z,102158.36
2018-09-14T08:56:16.717Z,102162.59
2018-09-14T09:01:21.865Z,102156.97
2018-09-14T09:03:51.236Z,102154.61
2018-09-14T09:06:20.525Z,102158.05
2018-09-14T09:08:49.840Z,102158.44
2018-09-14T09:11:19.171Z,102156.56
2018-09-14T09:13:48.461Z,102152.56
2018-09-14T09:16:17.757Z,102155.55
2018-09-14T09:18:47.106Z,102154.61
2018-09-14T09:21:16.408Z,102156.66
2018-09-14T09:23:45.738Z,102148.78
2018-09-14T09:26:15.083Z,102150.35
2018-09-14T09:28:44.358Z,102150.51
2018-09-14T09:31:13.640Z,102147.98
2018-09-14T09:33:42.935Z,102149.56
2018-09-14T09:36:12.249Z,102154.97
2018-09-14T09:38:41.543Z,102148.01
2018-09-14T09:41:10.847Z,102151.06
2018-09-14T09:43:40.294Z,102141.27
2018-09-14T09:46:09.533Z,102139.90
2018-09-14T09:48:38.866Z,102143.23
2018-09-14T09:51:08.254Z,102146.50
2018-09-14T09:53:37.616Z,102140.66
2018-09-14T09:56:07.035Z,102134.23
2018-09-14T09:58:36.376Z,102140.58
2018-09-14T10:01:11.809Z,102139.75
2018-09-14T10:03:46.401Z,102134.13
2018-09-14T10:06:20.878Z,102132.88
2018-09-14T10:08:50.216Z,102131.34
2018-09-14T10:11:19.542Z,102131.07
2018-09-14T10:13:48.991Z,102133.98
2018-09-14T10:16:18.341Z,102131.06
2018-09-14T10:18:47.666Z,102127.44
2018-09-14T10:21:17.134Z,102131.02
2018-09-14T10:23:46.439Z,102125.83
2018-09-14T10:26:15.767Z,102126.65
2018-09-14T10:28:45.076Z,102131.13
2018-09-14T10:31:14.388Z,102128.45
2018-09-14T10:33:43.730Z,102127.83
2018-09-14T10:36:13.057Z,102128.54
2018-09-14T10:38:42.377Z,102131.84
2018-09-14T10:41:11.714Z,102125.89
2018-09-14T10:43:41.050Z,102125.03
2018-09-14T10:46:10.397Z,102121.08
2018-09-14T10:48:39.884Z,102110.73
2018-09-14T10:51:09.086Z,102110.48
2018-09-14T10:53:38.418Z,102096.29
2018-09-14T10:56:07.824Z,102102.98
2018-09-14T10:58:43.646Z,102096.12
2018-09-14T11:01:15.213Z,102094.80
2018-09-14T11:03:44.790Z,102094.13
2018-09-14T11:06:15.013Z,102088.88
2018-09-14T11:08:44.374Z,102084.17
2018-09-14T11:11:13.719Z,102093.36
2018-09-14T11:13:43.071Z,102077.70
2018-09-14T11:16:12.396Z,102073.40
2018-09-14T11:18:41.784Z,102070.98
2018-09-14T11:21:11.085Z,102079.00
2018-09-14T11:23:40.407Z,102070.51
2018-09-14T11:26:09.765Z,102070.62
2018-09-14T11:28:39.111Z,102067.47
2018-09-14T11:31:08.456Z,102061.30
2018-09-14T11:33:37.790Z,102060.23
2018-09-14T11:36:07.405Z,102062.84
2018-09-14T11:38:36.897Z,102052.55
2018-09-14T11:41:06.394Z,102053.36
2018-09-14T11:43:35.720Z,102053.25
2018-09-14T11:51:04.410Z,102044.38
2018-09-14T11:53:33.776Z,102051.59
2018-09-14T11:56:03.081Z,102044.32
2018-09-14T11:58:32.421Z,102043.64
2018-09-14T12:01:01.751Z,102039.89
2018-09-14T12:03:31.070Z,102037.64
2018-09-14T12:06:00.421Z,102032.23
2018-09-14T12:08:29.745Z,102027.02
2018-09-14T12:10:59.076Z,102030.34
2018-09-14T12:13:28.466Z,102024.23
2018-09-14T12:15:57.771Z,102026.44
2018-09-14T12:18:27.089Z,102017.48
2018-09-14T12:20:56.402Z,102024.14
2018-09-14T12:23:25.717Z,102024.59
2018-09-14T12:25:55.073Z,102012.03
2018-09-14T12:28:24.411Z,102010.43
2018-09-14T12:30:53.738Z,102011.59
2018-09-14T12:33:23.060Z,102008.58
2018-09-14T12:35:52.366Z,102008.38
2018-09-14T12:38:21.687Z,102002.23
2018-09-14T12:40:51.027Z,102000.03
2018-09-14T12:43:20.349Z,101998.05
2018-09-14T12:45:49.825Z,101990.90
2018-09-14T12:48:19.186Z,101992.98
2018-09-14T12:50:48.533Z,101989.41
2018-09-14T12:53:17.832Z,101988.60
2018-09-14T12:55:47.125Z,101998.11
2018-09-14T12:58:16.461Z,101987.20
2018-09-14T13:00:45.897Z,101982.85
2018-09-14T13:03:15.293Z,101979.20
2018-09-14T13:05:44.640Z,101983.39
2018-09-14T13:08:13.958Z,101980.84
2018-09-14T13:10:43.268Z,101990.61
2018-09-14T13:13:12.612Z,101977.14
2018-09-14T13:15:44.357Z,101973.92
2018-09-14T13:18:13.755Z,101972.77
2018-09-14T13:20:43.091Z,101969.11
2018-09-14T13:23:12.493Z,101959.78
2018-09-14T13:25:41.913Z,101964.62
2018-09-14T13:28:11.216Z,101959.00
2018-09-14T13:30:40.534Z,101954.45
2018-09-14T13:33:09.854Z,101963.86
2018-09-14T13:35:39.184Z,101959.58
2018-09-14T13:38:08.538Z,101949.14
2018-09-14T13:40:37.865Z,101959.43
2018-09-14T13:43:07.199Z,101962.37
2018-09-14T13:45:38.145Z,101964.29
2018-09-14T13:48:07.502Z,101951.74
2018-09-14T13:50:36.871Z,101956.44
2018-09-14T13:53:06.199Z,101951.73
2018-09-14T13:55:35.538Z,101953.64
2018-09-14T13:58:06.249Z,101952.00
2018-09-14T14:00:35.562Z,101952.97
2018-09-14T14:03:06.971Z,101951.02
2018-09-14T14:05:36.283Z,101954.84
2018-09-14T14:08:06.625Z,101952.80
2018-09-14T14:10:35.974Z,101944.41
2018-09-14T14:13:06.286Z,101942.94
2018-09-14T14:15:35.598Z,101952.64
2018-09-14T14:18:06.197Z,101947.38
2018-09-14T14:20:35.753Z,101947.86
2018-09-14T14:23:05.446Z,101942.22
2018-09-14T14:25:34.765Z,101936.75
2018-09-14T14:28:04.084Z,101936.97
2018-09-14T14:30:33.447Z,101942.02
2018-09-14T14:33:02.816Z,101942.68
2018-09-14T14:35:32.146Z,101942.77
2018-09-14T14:38:01.465Z,101947.19
2018-09-14T14:40:30.813Z,101937.20
2018-09-14T14:43:04.271Z,101935.47
2018-09-14T14:45:33.616Z,101937.55
2018-09-14T14:48:02.951Z,101933.41
2018-09-14T14:50:32.281Z,101938.52
2018-09-14T14:53:01.594Z,101943.99
2018-09-14T14:55:30.946Z,101936.61
2018-09-14T14:58:00.289Z,101928.31
2018-09-14T15:00:29.641Z,101934.86
2018-09-14T15:02:58.979Z,101928.77
2018-09-14T15:05:28.319Z,101930.81
2018-09-14T15:08:00.104Z,101918.92
2018-09-14T15:10:29.633Z,101918.75
2018-09-14T15:12:58.979Z,101917.79
2018-09-14T15:15:28.510Z,101918.70
2018-09-14T15:17:58.159Z,101925.63
2018-09-14T15:20:27.979Z,101924.53
2018-09-14T15:22:57.649Z,101922.87
2018-09-14T15:25:27.172Z,101924.39
2018-09-14T15:27:56.755Z,101925.87
2018-09-14T15:30:26.260Z,101918.79
2018-09-14T15:32:55.873Z,101917.87
2018-09-14T15:35:25.474Z,101926.08
2018-09-14T15:37:54.846Z,101926.28
2018-09-14T15:40:24.184Z,101922.13
2018-09-14T15:42:53.500Z,101925.15
2018-09-14T15:45:22.817Z,101927.48
2018-09-14T15:47:52.121Z,101923.22
2018-09-14T15:50:21.445Z,101927.03
2018-09-14T15:52:50.765Z,101925.48
2018-09-14T15:55:20.479Z,101928.44
2018-09-14T16:00:26.349Z,101927.81
2018-09-14T16:02:55.658Z,101925.64
2018-09-14T16:05:25.005Z,101932.86
2018-09-14T16:07:54.329Z,101931.33
2018-09-14T16:10:23.630Z,101931.59
2018-09-14T16:12:52.972Z,101928.27
2018-09-14T16:15:22.273Z,101937.77
2018-09-14T16:17:51.616Z,101932.69
2018-09-14T16:20:20.926Z,101931.59
2018-09-14T16:22:50.249Z,101926.92
2018-09-14T16:25:19.554Z,101922.67
2018-09-14T16:27:48.881Z,101920.58
2018-09-14T16:30:18.270Z,101927.70
2018-09-14T16:32:47.582Z,101923.77
2018-09-14T16:35:16.919Z,101919.81
2018-09-14T16:37:46.303Z,101919.50
2018-09-14T16:40:15.646Z,101916.98
2018-09-14T16:42:45.145Z,101920.14
2018-09-14T16:45:14.505Z,101928.65
2018-09-14T16:47:43.865Z,101929.18
2018-09-14T16:50:13.193Z,101931.46
2018-09-14T16:52:42.538Z,101925.80
2018-09-14T16:55:11.893Z,101927.15
2018-09-14T16:57:41.224Z,101928.53
2018-09-14T17:00:10.567Z,101931.67
2018-09-14T17:02:40.229Z,101932.66
2018-09-14T17:05:09.537Z,101929.55
2018-09-14T17:07:38.944Z,101931.34
2018-09-14T17:10:09.517Z,101932.27
2018-09-14T17:12:38.833Z,101939.38
2018-09-14T17:15:08.725Z,101933.66
2018-09-14T17:17:39.222Z,101935.47
2018-09-14T17:20:08.561Z,101934.61
2018-09-14T17:22:37.934Z,101929.80
2018-09-14T17:25:07.261Z,101932.03
2018-09-14T17:27:36.696Z,101928.98
2018-09-14T17:30:06.538Z,101925.88
2018-09-14T17:32:35.839Z,101928.98
2018-09-14T17:35:06.401Z,101935.63
2018-09-14T17:37:35.736Z,101932.09
2018-09-14T17:40:06.019Z,101924.55
2018-09-14T17:42:35.369Z,101929.38
2018-09-14T17:50:08.896Z,101927.43
2018-09-14T17:52:38.324Z,101925.24
2018-09-14T17:55:07.664Z,101924.40
2018-09-14T17:57:37.094Z,101923.58
2018-09-14T18:00:06.786Z,101922.31
2018-09-14T18:02:36.326Z,101915.33
2018-09-14T18:05:07.341Z,101923.77
2018-09-14T18:07:36.720Z,101926.05
2018-09-14T18:10:06.258Z,101927.84
2018-09-14T18:12:35.742Z,101931.41
2018-09-14T18:15:06.586Z,101922.55
2018-09-14T18:17:36.062Z,101919.48
2018-09-14T18:20:05.403Z,101923.05
2018-09-14T18:22:34.803Z,101927.03
2018-09-14T18:25:04.235Z,101920.41
2018-09-14T18:27:33.756Z,101920.46
2018-09-14T18:30:03.198Z,101918.77
2018-09-14T18:32:32.591Z,101919.69
2018-09-14T18:35:02.302Z,101923.25
2018-09-14T18:37:36.834Z,101922.39
2018-09-14T18:40:20.836Z,101927.73
2018-09-14T18:42:50.413Z,101934.41
2018-09-14T18:45:19.844Z,101935.75
2018-09-14T18:47:49.262Z,101927.80
2018-09-14T18:50:18.681Z,101932.23
2018-09-14T18:52:48.189Z,101934.02
2018-09-14T18:55:17.553Z,101932.27
2018-09-14T18:57:46.980Z,101934.51
2018-09-14T19:00:16.512Z,101932.77
2018-09-14T19:02:45.910Z,101935.02
2018-09-14T19:05:15.444Z,101929.30
2018-09-14T19:07:44.898Z,101931.13
2018-09-14T19:10:15.295Z,101928.97
2018-09-14T19:12:50.148Z,101929.91
2018-09-14T19:15:19.544Z,101922.45
2018-09-14T19:17:48.924Z,101927.83
2018-09-14T19:20:26.205Z,101925.21
2018-09-14T19:22:55.558Z,101925.70
2018-09-14T19:25:25.035Z,101921.34
2018-09-14T19:27:54.478Z,101935.92
2018-09-14T19:30:24.236Z,101939.50
2018-09-14T19:32:53.626Z,101939.11
2018-09-14T19:35:23.145Z,101940.42
2018-09-14T19:37:52.602Z,101947.96
2018-09-14T19:40:22.041Z,101942.69
2018-09-14T19:42:51.447Z,101941.84
2018-09-14T19:45:20.829Z,101943.18
2018-09-14T19:47:50.833Z,101941.85
2018-09-14T19:50:20.268Z,101950.24
2018-09-14T19:52:49.744Z,101947.15
2018-09-14T19:55:19.465Z,101943.18
2018-09-14T19:57:49.472Z,101949.79
2018-09-14T20:00:18.967Z,101930.84
2018-09-14T20:02:48.319Z,101933.05
2018-09-14T20:05:17.708Z,101939.23
2018-09-14T20:07:47.271Z,101936.15
2018-09-14T20:10:16.939Z,101935.74
2018-09-14T20:12:46.366Z,101934.88
2018-09-14T20:15:15.747Z,101940.19
2018-09-14T20:17:45.151Z,101934.48
2018-09-14T20:20:14.530Z,101931.84
2018-09-14T20:22:43.929Z,101931.42
2018-09-14T20:25:13.313Z,101933.65
2018-09-14T20:27:42.771Z,101934.55
2018-09-14T20:30:12.275Z,101942.00
2018-09-14T20:32:41.769Z,101940.69
2018-09-14T20:35:11.809Z,101939.83
2018-09-14T20:37:41.549Z,101942.05
2018-09-14T20:40:12.207Z,101934.55
2018-09-14T20:42:42.288Z,101936.31
2018-09-14T20:45:11.880Z,101936.76
2018-09-14T20:47:42.043Z,101937.63
2018-09-14T20:50:11.503Z,101941.57
2018-09-14T20:52:41.003Z,101941.14
2018-09-14T20:55:10.481Z,101942.44
2018-09-14T20:57:40.357Z,101938.48
2018-09-14T21:00:13.227Z,101931.45
2018-09-14T21:02:42.692Z,101936.29
2018-09-14T21:05:12.179Z,101944.22
2018-09-14T21:07:41.634Z,101943.80
2018-09-14T21:10:11.035Z,101935.45
2018-09-14T21:12:40.430Z,101937.20
2018-09-14T21:15:09.993Z,101942.50
2018-09-14T21:17:40.379Z,101943.34
2018-09-14T21:20:09.826Z,101945.09
2018-09-14T21:22:39.314Z,101947.73
2018-09-14T21:25:08.715Z,101948.63
2018-09-14T21:27:38.150Z,101942.03
2018-09-14T21:30:08.280Z,101944.65
2018-09-14T21:32:38.438Z,101945.52
2018-09-14T21:35:07.976Z,101936.72
2018-09-14T21:37:37.442Z,101937.15
2018-09-14T21:40:07.054Z,101935.81
2018-09-14T21:42:36.475Z,101934.92
2018-09-14T21:45:06.206Z,101937.53
2018-09-14T21:47:35.536Z,101934.45
2018-09-14T21:50:06.446Z,101939.28
2018-09-14T21:52:35.829Z,101935.30
2018-09-14T21:55:06.373Z,101940.56
2018-09-14T21:57:35.788Z,101939.23
2018-09-14T22:00:13.003Z,101939.20
2018-09-14T22:02:42.410Z,101942.72
2018-09-14T22:05:12.029Z,101943.57
2018-09-14T22:07:41.406Z,101937.38
2018-09-14T22:10:10.842Z,101950.98
2018-09-14T22:12:40.205Z,101954.05
2018-09-14T22:15:10.458Z,101953.60
2018-09-14T22:17:39.843Z,101955.36
2018-09-14T22:20:09.218Z,101948.77
2018-09-14T22:22:38.631Z,101947.44
2018-09-14T22:25:08.215Z,101946.56
2018-09-14T22:27:37.600Z,101948.29
2018-09-14T22:30:07.842Z,101951.35
2018-09-14T22:32:37.274Z,101953.54
2018-09-14T22:35:07.820Z,101957.48
2018-09-14T22:37:37.325Z,101954.42
2018-09-14T22:40:06.697Z,101955.70
2018-09-14T22:42:36.286Z,101949.54
2018-09-14T22:45:06.521Z,101945.58
2018-09-14T22:47:36.854Z,101942.92
2018-09-14T22:50:06.921Z,101944.23
2018-09-14T22:52:36.286Z,101942.03
2018-09-14T22:55:06.238Z,101943.79
2018-09-14T22:57:35.570Z,101938.95
2018-09-14T23:00:06.489Z,101943.36
2018-09-14T23:02:35.844Z,101946.00
2018-09-14T23:05:05.423Z,101944.24
2018-09-14T23:07:35.063Z,101942.48
2018-09-14T23:10:12.965Z,101938.54
2018-09-14T23:12:49.910Z,101936.77
2018-09-14T23:15:27.542Z,101938.52
2018-09-14T23:18:05.336Z,101939.39
2018-09-14T23:20:44.337Z,101935.45
2018-09-14T23:23:22.598Z,101937.66
2018-09-14T23:26:06.012Z,101939.88
2018-09-14T23:28:43.816Z,101943.40
2018-09-14T23:31:22.745Z,101937.29
2018-09-14T23:34:00.201Z,101932.45
2018-09-14T23:36:37.462Z,101937.31
2018-09-14T23:39:17.473Z,101934.70
2018-09-14T23:41:53.009Z,101925.06
2018-09-14T23:44:31.175Z,101933.45
2018-09-14T23:47:08.080Z,101932.59
2018-09-14T23:49:44.885Z,101933.48
2018-09-14T23:52:21.463Z,101940.08
2018-09-14T23:55:01.141Z,101937.44
2018-09-14T23:57:38.758Z,101940.44
